sensor_id;sensor_type;location;lat;lon;timestamp;temperature;humidity
47805;DHT22;33568;45.286;9.900;2022-11-20T00:01:09;9.50;99.90
47805;DHT22;33568;45.286;9.900;2022-11-20T00:03:36;9.50;99.90
47805;DHT22;33568;45.286;9.900;2022-11-20T00:06:08;9.50;99.90
47805;DHT22;33568;45.286;9.900;2022-11-20T00:08:35;9.50;99.90
47805;DHT22;33568;45.286;9.900;2022-11-20T00:11:07;9.40;99.90
47805;DHT22;33568;45.286;9.900;2022-11-20T00:13:34;9.40;99.90
47805;DHT22;33568;45.286;9.900;2022-11-20T00:16:02;9.40;99.90
47805;DHT22;33568;45.286;9.900;2022-11-20T00:18:29;9.40;99.90
47805;DHT22;33568;45.286;9.900;2022-11-20T00:21:27;9.40;99.90
47805;DHT22;33568;45.286;9.900;2022-11-20T00:23:54;9.40;99.90
47805;DHT22;33568;45.286;9.900;2022-11-20T00:26:21;9.40;99.90
47805;DHT22;33568;45.286;9.900;2022-11-20T00:28:53;9.30;99.90
47805;DHT22;33568;45.286;9.900;2022-11-20T00:31:20;9.30;99.90
47805;DHT22;33568;45.286;9.900;2022-11-20T00:33:47;9.30;99.90
47805;DHT22;33568;45.286;9.900;2022-11-20T00:36:15;9.20;99.90
47805;DHT22;33568;45.286;9.900;2022-11-20T00:38:42;9.20;99.90
47805;DHT22;33568;45.286;9.900;2022-11-20T00:41:10;9.20;99.90
47805;DHT22;33568;45.286;9.900;2022-11-20T00:43:37;9.20;99.90
47805;DHT22;33568;45.286;9.900;2022-11-20T00:46:06;9.20;99.90
47805;DHT22;33568;45.286;9.900;2022-11-20T00:48:33;9.20;99.90
47805;DHT22;33568;45.286;9.900;2022-11-20T00:51:00;9.10;99.90
47805;DHT22;33568;45.286;9.900;2022-11-20T00:53:26;9.10;99.90
47805;DHT22;33568;45.286;9.900;2022-11-20T00:56:04;9.10;99.90
47805;DHT22;33568;45.286;9.900;2022-11-20T00:58:33;9.10;99.90
47805;DHT22;33568;45.286;9.900;2022-11-20T01:01:01;9.10;99.90
47805;DHT22;33568;45.286;9.900;2022-11-20T01:03:30;9.10;99.90
47805;DHT22;33568;45.286;9.900;2022-11-20T01:06:00;9.10;99.90
47805;DHT22;33568;45.286;9.900;2022-11-20T01:08:32;9.10;99.90
47805;DHT22;33568;45.286;9.900;2022-11-20T01:11:11;9.10;99.90
47805;DHT22;33568;45.286;9.900;2022-11-20T01:13:38;9.00;99.90
47805;DHT22;33568;45.286;9.900;2022-11-20T01:16:25;9.00;99.90
47805;DHT22;33568;45.286;9.900;2022-11-20T01:18:53;8.90;99.90
47805;DHT22;33568;45.286;9.900;2022-11-20T01:21:22;8.80;99.90
47805;DHT22;33568;45.286;9.900;2022-11-20T01:23:50;8.80;99.90
47805;DHT22;33568;45.286;9.900;2022-11-20T01:26:22;8.70;99.90
47805;DHT22;33568;45.286;9.900;2022-11-20T01:28:49;8.70;99.90
47805;DHT22;33568;45.286;9.900;2022-11-20T01:31:19;8.60;99.90
47805;DHT22;33568;45.286;9.900;2022-11-20T01:33:47;8.60;99.90
47805;DHT22;33568;45.286;9.900;2022-11-20T01:36:15;8.50;99.90
47805;DHT22;33568;45.286;9.900;2022-11-20T01:38:42;8.40;99.90
47805;DHT22;33568;45.286;9.900;2022-11-20T01:41:10;8.40;99.90
47805;DHT22;33568;45.286;9.900;2022-11-20T01:43:37;8.40;99.90
47805;DHT22;33568;45.286;9.900;2022-11-20T01:46:17;8.40;99.90
47805;DHT22;33568;45.286;9.900;2022-11-20T01:48:58;8.40;99.90
47805;DHT22;33568;45.286;9.900;2022-11-20T01:51:48;8.40;99.90
47805;DHT22;33568;45.286;9.900;2022-11-20T01:54:21;8.30;99.90
47805;DHT22;33568;45.286;9.900;2022-11-20T01:56:51;8.30;99.90
47805;DHT22;33568;45.286;9.900;2022-11-20T01:59:21;8.30;99.90
47805;DHT22;33568;45.286;9.900;2022-11-20T02:01:50;8.30;99.90
47805;DHT22;33568;45.286;9.900;2022-11-20T02:04:16;8.20;99.90
47805;DHT22;33568;45.286;9.900;2022-11-20T02:06:48;8.20;99.90
47805;DHT22;33568;45.286;9.900;2022-11-20T02:09:16;8.10;99.90
47805;DHT22;33568;45.286;9.900;2022-11-20T02:11:42;8.10;99.90
47805;DHT22;33568;45.286;9.900;2022-11-20T02:14:09;8.10;99.90
47805;DHT22;33568;45.286;9.900;2022-11-20T02:16:39;8.10;99.90
47805;DHT22;33568;45.286;9.900;2022-11-20T02:19:14;8.10;99.90
47805;DHT22;33568;45.286;9.900;2022-11-20T02:24:21;8.10;99.90
47805;DHT22;33568;45.286;9.900;2022-11-20T02:27:07;8.10;99.90
47805;DHT22;33568;45.286;9.900;2022-11-20T02:29:53;8.20;99.90
47805;DHT22;33568;45.286;9.900;2022-11-20T02:32:32;8.20;99.90
47805;DHT22;33568;45.286;9.900;2022-11-20T02:35:09;8.10;99.90
47805;DHT22;33568;45.286;9.900;2022-11-20T02:37:39;8.10;99.90
47805;DHT22;33568;45.286;9.900;2022-11-20T02:40:07;8.10;99.90
47805;DHT22;33568;45.286;9.900;2022-11-20T02:42:33;8.00;99.90
47805;DHT22;33568;45.286;9.900;2022-11-20T02:44:59;7.90;99.90
47805;DHT22;33568;45.286;9.900;2022-11-20T02:47:26;7.90;99.90
47805;DHT22;33568;45.286;9.900;2022-11-20T02:49:52;7.80;99.90
47805;DHT22;33568;45.286;9.900;2022-11-20T02:52:18;7.80;99.90
47805;DHT22;33568;45.286;9.900;2022-11-20T02:54:45;7.80;99.90
47805;DHT22;33568;45.286;9.900;2022-11-20T02:57:11;7.60;99.90
47805;DHT22;33568;45.286;9.900;2022-11-20T02:59:37;7.50;99.90
47805;DHT22;33568;45.286;9.900;2022-11-20T03:02:04;7.50;99.90
47805;DHT22;33568;45.286;9.900;2022-11-20T03:04:31;7.40;99.90
47805;DHT22;33568;45.286;9.900;2022-11-20T03:06:57;7.30;99.90
47805;DHT22;33568;45.286;9.900;2022-11-20T03:09:23;7.20;99.90
47805;DHT22;33568;45.286;9.900;2022-11-20T03:11:50;7.30;99.90
47805;DHT22;33568;45.286;9.900;2022-11-20T03:14:17;7.30;99.90
47805;DHT22;33568;45.286;9.900;2022-11-20T03:16:43;7.20;99.90
47805;DHT22;33568;45.286;9.900;2022-11-20T03:19:11;7.10;99.90
47805;DHT22;33568;45.286;9.900;2022-11-20T03:21:37;7.00;99.90
47805;DHT22;33568;45.286;9.900;2022-11-20T03:24:04;7.00;99.90
47805;DHT22;33568;45.286;9.900;2022-11-20T03:26:31;6.90;99.90
47805;DHT22;33568;45.286;9.900;2022-11-20T03:28:59;6.90;99.90
47805;DHT22;33568;45.286;9.900;2022-11-20T03:31:32;6.80;99.90
47805;DHT22;33568;45.286;9.900;2022-11-20T03:33:59;6.80;99.90
47805;DHT22;33568;45.286;9.900;2022-11-20T03:36:26;6.80;99.90
47805;DHT22;33568;45.286;9.900;2022-11-20T03:38:53;6.80;99.90
47805;DHT22;33568;45.286;9.900;2022-11-20T03:41:22;6.90;99.90
47805;DHT22;33568;45.286;9.900;2022-11-20T03:44:00;6.90;99.90
47805;DHT22;33568;45.286;9.900;2022-11-20T03:46:27;6.90;99.90
47805;DHT22;33568;45.286;9.900;2022-11-20T03:48:54;6.90;99.90
47805;DHT22;33568;45.286;9.900;2022-11-20T03:51:23;6.80;99.90
47805;DHT22;33568;45.286;9.900;2022-11-20T03:53:52;6.80;99.90
47805;DHT22;33568;45.286;9.900;2022-11-20T03:56:22;6.70;99.90
47805;DHT22;33568;45.286;9.900;2022-11-20T03:58:49;6.80;99.90
47805;DHT22;33568;45.286;9.900;2022-11-20T04:01:17;6.80;99.90
47805;DHT22;33568;45.286;9.900;2022-11-20T04:03:43;6.70;99.90
47805;DHT22;33568;45.286;9.900;2022-11-20T04:06:14;6.70;99.90
47805;DHT22;33568;45.286;9.900;2022-11-20T04:08:41;6.70;99.90
47805;DHT22;33568;45.286;9.900;2022-11-20T04:11:14;6.70;99.90
47805;DHT22;33568;45.286;9.900;2022-11-20T04:13:41;6.60;99.90
47805;DHT22;33568;45.286;9.900;2022-11-20T04:16:09;6.60;99.90
47805;DHT22;33568;45.286;9.900;2022-11-20T04:18:36;6.60;99.90
47805;DHT22;33568;45.286;9.900;2022-11-20T04:21:03;6.60;99.90
47805;DHT22;33568;45.286;9.900;2022-11-20T04:23:29;6.50;99.90
47805;DHT22;33568;45.286;9.900;2022-11-20T04:26:01;6.60;99.90
47805;DHT22;33568;45.286;9.900;2022-11-20T04:28:28;6.60;99.90
47805;DHT22;33568;45.286;9.900;2022-11-20T04:30:54;6.60;99.90
47805;DHT22;33568;45.286;9.900;2022-11-20T04:33:27;6.60;99.90
47805;DHT22;33568;45.286;9.900;2022-11-20T04:35:53;6.60;99.90
47805;DHT22;33568;45.286;9.900;2022-11-20T04:38:19;6.60;99.90
47805;DHT22;33568;45.286;9.900;2022-11-20T04:40:46;6.70;99.90
47805;DHT22;33568;45.286;9.900;2022-11-20T04:43:12;6.70;99.90
47805;DHT22;33568;45.286;9.900;2022-11-20T04:45:38;6.70;99.90
47805;DHT22;33568;45.286;9.900;2022-11-20T04:48:05;6.80;99.90
47805;DHT22;33568;45.286;9.900;2022-11-20T04:50:31;6.80;99.90
47805;DHT22;33568;45.286;9.900;2022-11-20T04:52:58;6.80;99.90
47805;DHT22;33568;45.286;9.900;2022-11-20T04:55:24;6.90;99.90
47805;DHT22;33568;45.286;9.900;2022-11-20T04:57:50;7.00;99.90
47805;DHT22;33568;45.286;9.900;2022-11-20T05:00:18;7.00;99.90
47805;DHT22;33568;45.286;9.900;2022-11-20T05:02:44;7.00;99.90
47805;DHT22;33568;45.286;9.900;2022-11-20T05:05:10;7.00;99.90
47805;DHT22;33568;45.286;9.900;2022-11-20T05:07:37;6.90;99.90
47805;DHT22;33568;45.286;9.900;2022-11-20T05:10:03;6.90;99.90
47805;DHT22;33568;45.286;9.900;2022-11-20T05:12:31;6.90;99.90
47805;DHT22;33568;45.286;9.900;2022-11-20T05:14:57;6.90;99.90
47805;DHT22;33568;45.286;9.900;2022-11-20T05:17:23;6.90;99.90
47805;DHT22;33568;45.286;9.900;2022-11-20T05:19:50;6.90;99.90
47805;DHT22;33568;45.286;9.900;2022-11-20T05:22:16;6.90;99.90
47805;DHT22;33568;45.286;9.900;2022-11-20T05:24:43;6.90;99.90
47805;DHT22;33568;45.286;9.900;2022-11-20T05:27:09;6.90;99.90
47805;DHT22;33568;45.286;9.900;2022-11-20T05:29:35;6.80;99.90
47805;DHT22;33568;45.286;9.900;2022-11-20T05:32:02;6.80;99.90
47805;DHT22;33568;45.286;9.900;2022-11-20T05:34:28;6.80;99.90
47805;DHT22;33568;45.286;9.900;2022-11-20T05:36:55;6.70;99.90
47805;DHT22;33568;45.286;9.900;2022-11-20T05:39:21;6.70;99.90
47805;DHT22;33568;45.286;9.900;2022-11-20T05:41:47;6.70;99.90
47805;DHT22;33568;45.286;9.900;2022-11-20T05:44:34;6.70;99.90
47805;DHT22;33568;45.286;9.900;2022-11-20T05:47:00;6.70;99.90
47805;DHT22;33568;45.286;9.900;2022-11-20T05:49:27;6.60;99.90
47805;DHT22;33568;45.286;9.900;2022-11-20T05:51:53;6.60;99.90
47805;DHT22;33568;45.286;9.900;2022-11-20T05:54:19;6.60;99.90
47805;DHT22;33568;45.286;9.900;2022-11-20T05:56:45;6.60;99.90
47805;DHT22;33568;45.286;9.900;2022-11-20T05:59:12;6.60;99.90
47805;DHT22;33568;45.286;9.900;2022-11-20T06:01:38;6.60;99.90
47805;DHT22;33568;45.286;9.900;2022-11-20T06:04:05;6.60;99.90
47805;DHT22;33568;45.286;9.900;2022-11-20T06:06:31;6.60;99.90
47805;DHT22;33568;45.286;9.900;2022-11-20T06:08:57;6.50;99.90
47805;DHT22;33568;45.286;9.900;2022-11-20T06:11:25;6.50;99.90
47805;DHT22;33568;45.286;9.900;2022-11-20T06:13:52;6.50;99.90
47805;DHT22;33568;45.286;9.900;2022-11-20T06:16:19;6.50;99.90
47805;DHT22;33568;45.286;9.900;2022-11-20T06:18:47;6.50;99.90
47805;DHT22;33568;45.286;9.900;2022-11-20T06:21:19;6.50;99.90
47805;DHT22;33568;45.286;9.900;2022-11-20T06:23:46;6.50;99.90
47805;DHT22;33568;45.286;9.900;2022-11-20T06:26:32;6.50;99.90
47805;DHT22;33568;45.286;9.900;2022-11-20T06:28:58;6.60;99.90
47805;DHT22;33568;45.286;9.900;2022-11-20T06:31:26;6.60;99.90
47805;DHT22;33568;45.286;9.900;2022-11-20T06:33:52;6.50;99.90
47805;DHT22;33568;45.286;9.900;2022-11-20T06:36:20;6.50;99.90
47805;DHT22;33568;45.286;9.900;2022-11-20T06:38:47;6.50;99.90
47805;DHT22;33568;45.286;9.900;2022-11-20T06:41:14;6.50;99.90
47805;DHT22;33568;45.286;9.900;2022-11-20T06:43:41;6.40;99.70
47805;DHT22;33568;45.286;9.900;2022-11-20T06:46:09;6.40;99.90
47805;DHT22;33568;45.286;9.900;2022-11-20T06:48:36;6.20;99.90
47805;DHT22;33568;45.286;9.900;2022-11-20T06:51:04;6.10;99.90
47805;DHT22;33568;45.286;9.900;2022-11-20T06:53:31;6.00;99.90
47805;DHT22;33568;45.286;9.900;2022-11-20T06:55:57;6.10;99.90
47805;DHT22;33568;45.286;9.900;2022-11-20T06:58:26;6.20;99.90
47805;DHT22;33568;45.286;9.900;2022-11-20T07:00:57;6.20;99.90
47805;DHT22;33568;45.286;9.900;2022-11-20T07:03:23;6.20;99.90
47805;DHT22;33568;45.286;9.900;2022-11-20T07:05:50;6.20;99.90
47805;DHT22;33568;45.286;9.900;2022-11-20T07:08:16;6.20;99.90
47805;DHT22;33568;45.286;9.900;2022-11-20T07:10:42;6.20;99.90
47805;DHT22;33568;45.286;9.900;2022-11-20T07:13:09;6.30;99.90
47805;DHT22;33568;45.286;9.900;2022-11-20T07:15:35;6.30;99.90
47805;DHT22;33568;45.286;9.900;2022-11-20T07:18:02;6.20;99.90
47805;DHT22;33568;45.286;9.900;2022-11-20T07:20:28;6.20;99.90
47805;DHT22;33568;45.286;9.900;2022-11-20T07:22:55;6.20;99.90
47805;DHT22;33568;45.286;9.900;2022-11-20T07:25:22;6.30;99.90
47805;DHT22;33568;45.286;9.900;2022-11-20T07:27:49;6.30;99.90
47805;DHT22;33568;45.286;9.900;2022-11-20T07:30:16;6.40;99.90
47805;DHT22;33568;45.286;9.900;2022-11-20T07:32:45;6.50;99.90
47805;DHT22;33568;45.286;9.900;2022-11-20T07:35:12;6.60;99.90
47805;DHT22;33568;45.286;9.900;2022-11-20T07:37:39;6.70;99.90
47805;DHT22;33568;45.286;9.900;2022-11-20T07:40:05;6.80;99.90
47805;DHT22;33568;45.286;9.900;2022-11-20T07:42:32;6.80;99.90
47805;DHT22;33568;45.286;9.900;2022-11-20T07:44:58;6.90;99.90
47805;DHT22;33568;45.286;9.900;2022-11-20T07:47:24;7.00;99.90
47805;DHT22;33568;45.286;9.900;2022-11-20T07:49:51;7.10;99.90
47805;DHT22;33568;45.286;9.900;2022-11-20T07:52:17;7.00;99.80
47805;DHT22;33568;45.286;9.900;2022-11-20T07:54:43;7.00;99.70
47805;DHT22;33568;45.286;9.900;2022-11-20T07:57:10;7.10;99.70
47805;DHT22;33568;45.286;9.900;2022-11-20T07:59:36;7.20;99.70
47805;DHT22;33568;45.286;9.900;2022-11-20T08:02:03;7.30;99.70
47805;DHT22;33568;45.286;9.900;2022-11-20T08:04:29;7.30;99.60
47805;DHT22;33568;45.286;9.900;2022-11-20T08:06:55;7.40;99.50
47805;DHT22;33568;45.286;9.900;2022-11-20T08:09:22;7.40;99.40
47805;DHT22;33568;45.286;9.900;2022-11-20T08:11:48;7.30;99.40
47805;DHT22;33568;45.286;9.900;2022-11-20T08:14:33;7.30;99.60
47805;DHT22;33568;45.286;9.900;2022-11-20T08:16:59;7.40;99.50
47805;DHT22;33568;45.286;9.900;2022-11-20T08:19:26;7.60;99.30
47805;DHT22;33568;45.286;9.900;2022-11-20T08:21:52;7.70;99.00
47805;DHT22;33568;45.286;9.900;2022-11-20T08:24:19;7.70;98.70
47805;DHT22;33568;45.286;9.900;2022-11-20T08:26:45;7.70;98.80
47805;DHT22;33568;45.286;9.900;2022-11-20T08:29:11;7.80;98.70
47805;DHT22;33568;45.286;9.900;2022-11-20T08:31:38;7.90;98.60
47805;DHT22;33568;45.286;9.900;2022-11-20T08:34:04;8.10;98.60
47805;DHT22;33568;45.286;9.900;2022-11-20T08:36:33;8.20;98.40
47805;DHT22;33568;45.286;9.900;2022-11-20T08:39:01;8.20;98.30
47805;DHT22;33568;45.286;9.900;2022-11-20T08:41:29;8.20;98.40
47805;DHT22;33568;45.286;9.900;2022-11-20T08:44:00;8.30;98.50
47805;DHT22;33568;45.286;9.900;2022-11-20T08:46:31;8.30;98.60
47805;DHT22;33568;45.286;9.900;2022-11-20T08:49:04;8.30;98.60
47805;DHT22;33568;45.286;9.900;2022-11-20T08:51:30;8.30;98.90
47805;DHT22;33568;45.286;9.900;2022-11-20T08:53:57;8.40;99.00
47805;DHT22;33568;45.286;9.900;2022-11-20T08:56:23;8.50;98.90
47805;DHT22;33568;45.286;9.900;2022-11-20T08:58:50;8.70;98.80
47805;DHT22;33568;45.286;9.900;2022-11-20T09:01:22;8.80;98.60
47805;DHT22;33568;45.286;9.900;2022-11-20T09:03:49;8.90;98.60
47805;DHT22;33568;45.286;9.900;2022-11-20T09:06:15;8.90;98.60
47805;DHT22;33568;45.286;9.900;2022-11-20T09:08:42;8.90;98.20
47805;DHT22;33568;45.286;9.900;2022-11-20T09:11:09;8.90;98.60
47805;DHT22;33568;45.286;9.900;2022-11-20T09:13:35;9.00;98.70
47805;DHT22;33568;45.286;9.900;2022-11-20T09:16:05;9.00;98.60
47805;DHT22;33568;45.286;9.900;2022-11-20T09:18:32;9.20;98.70
47805;DHT22;33568;45.286;9.900;2022-11-20T09:21:01;9.30;98.60
47805;DHT22;33568;45.286;9.900;2022-11-20T09:23:32;9.30;98.50
47805;DHT22;33568;45.286;9.900;2022-11-20T09:26:03;9.30;98.40
47805;DHT22;33568;45.286;9.900;2022-11-20T09:28:30;9.30;98.60
47805;DHT22;33568;45.286;9.900;2022-11-20T09:30:56;9.50;98.40
47805;DHT22;33568;45.286;9.900;2022-11-20T09:33:23;9.70;98.30
47805;DHT22;33568;45.286;9.900;2022-11-20T09:35:49;9.90;98.10
47805;DHT22;33568;45.286;9.900;2022-11-20T09:38:15;10.00;97.90
47805;DHT22;33568;45.286;9.900;2022-11-20T09:40:58;9.90;97.90
47805;DHT22;33568;45.286;9.900;2022-11-20T09:44:18;10.00;97.80
47805;DHT22;33568;45.286;9.900;2022-11-20T09:52:29;11.60;96.90
47805;DHT22;33568;45.286;9.900;2022-11-20T09:54:40;13.50;95.40
47805;DHT22;33568;45.286;9.900;2022-11-20T09:57:21;16.00;92.30
47805;DHT22;33568;45.286;9.900;2022-11-20T09:59:54;18.10;86.00
47805;DHT22;33568;45.286;9.900;2022-11-20T10:02:48;19.20;83.00
47805;DHT22;33568;45.286;9.900;2022-11-20T10:05:22;19.30;75.60
47805;DHT22;33568;45.286;9.900;2022-11-20T10:10:41;20.80;72.60
47805;DHT22;33568;45.286;9.900;2022-11-20T10:30:13;26.30;54.60
47805;DHT22;33568;45.286;9.900;2022-11-20T10:32:49;26.10;52.40
47805;DHT22;33568;45.286;9.900;2022-11-20T10:35:37;26.00;54.80
47805;DHT22;33568;45.286;9.900;2022-11-20T10:38:20;26.40;50.80
47805;DHT22;33568;45.286;9.900;2022-11-20T10:40:54;26.90;52.30
47805;DHT22;33568;45.286;9.900;2022-11-20T10:43:46;27.20;51.60
47805;DHT22;33568;45.286;9.900;2022-11-20T10:46:19;27.50;51.60
47805;DHT22;33568;45.286;9.900;2022-11-20T10:48:48;27.70;49.80
47805;DHT22;33568;45.286;9.900;2022-11-20T10:56:41;28.30;48.70
47805;DHT22;33568;45.286;9.900;2022-11-20T11:01:55;29.00;47.70
47805;DHT22;33568;45.286;9.900;2022-11-20T11:04:48;29.30;48.10
47805;DHT22;33568;45.286;9.900;2022-11-20T11:07:20;29.30;43.90
47805;DHT22;33568;45.286;9.900;2022-11-20T11:09:50;29.20;46.50
47805;DHT22;33568;45.286;9.900;2022-11-20T11:12:19;29.30;46.30
47805;DHT22;33568;45.286;9.900;2022-11-20T11:14:51;29.40;46.10
47805;DHT22;33568;45.286;9.900;2022-11-20T11:22:46;29.60;43.40
47805;DHT22;33568;45.286;9.900;2022-11-20T11:25:39;29.60;44.10
47805;DHT22;33568;45.286;9.900;2022-11-20T11:30:45;29.50;43.40
47805;DHT22;33568;45.286;9.900;2022-11-20T11:33:23;29.40;44.70
47805;DHT22;33568;45.286;9.900;2022-11-20T11:35:51;29.20;43.60
47805;DHT22;33568;45.286;9.900;2022-11-20T11:40:54;29.40;44.40
47805;DHT22;33568;45.286;9.900;2022-11-20T11:43:24;29.70;44.30
47805;DHT22;33568;45.286;9.900;2022-11-20T11:46:31;29.70;44.00
47805;DHT22;33568;45.286;9.900;2022-11-20T11:54:34;29.00;42.80
47805;DHT22;33568;45.286;9.900;2022-11-20T11:57:09;29.10;44.10
47805;DHT22;33568;45.286;9.900;2022-11-20T11:59:47;29.40;44.50
47805;DHT22;33568;45.286;9.900;2022-11-20T12:02:35;29.70;44.60
47805;DHT22;33568;45.286;9.900;2022-11-20T12:07:50;29.40;42.90
47805;DHT22;33568;45.286;9.900;2022-11-20T12:10:53;28.40;44.10
47805;DHT22;33568;45.286;9.900;2022-11-20T12:13:41;25.40;45.80
47805;DHT22;33568;45.286;9.900;2022-11-20T12:16:13;22.40;50.50
47805;DHT22;33568;45.286;9.900;2022-11-20T12:18:40;20.60;54.30
47805;DHT22;33568;45.286;9.900;2022-11-20T12:23:49;18.40;59.40
47805;DHT22;33568;45.286;9.900;2022-11-20T12:49:50;14.90;74.10
47805;DHT22;33568;45.286;9.900;2022-11-20T13:01:03;14.60;77.30
47805;DHT22;33568;45.286;9.900;2022-11-20T13:03:43;14.50;76.80
47805;DHT22;33568;45.286;9.900;2022-11-20T13:06:17;14.50;77.30
47805;DHT22;33568;45.286;9.900;2022-11-20T13:08:52;14.50;77.80
47805;DHT22;33568;45.286;9.900;2022-11-20T13:11:44;14.40;78.20
47805;DHT22;33568;45.286;9.900;2022-11-20T13:14:24;14.40;79.10
47805;DHT22;33568;45.286;9.900;2022-11-20T13:19:37;14.40;79.70
47805;DHT22;33568;45.286;9.900;2022-11-20T13:22:04;14.40;79.90
47805;DHT22;33568;45.286;9.900;2022-11-20T13:24:31;14.30;80.10
47805;DHT22;33568;45.286;9.900;2022-11-20T13:29:44;14.20;80.70
47805;DHT22;33568;45.286;9.900;2022-11-20T13:32:18;14.20;80.70
47805;DHT22;33568;45.286;9.900;2022-11-20T13:34:57;14.20;81.20
47805;DHT22;33568;45.286;9.900;2022-11-20T13:42:45;14.20;82.10
47805;DHT22;33568;45.286;9.900;2022-11-20T13:45:29;14.20;81.80
47805;DHT22;33568;45.286;9.900;2022-11-20T13:47:57;14.20;81.90
47805;DHT22;33568;45.286;9.900;2022-11-20T13:50:49;14.30;82.10
47805;DHT22;33568;45.286;9.900;2022-11-20T13:55:54;14.20;82.20
47805;DHT22;33568;45.286;9.900;2022-11-20T14:01:41;14.20;82.20
47805;DHT22;33568;45.286;9.900;2022-11-20T14:04:15;14.10;82.70
47805;DHT22;33568;45.286;9.900;2022-11-20T14:06:46;14.10;83.00
47805;DHT22;33568;45.286;9.900;2022-11-20T14:09:25;14.10;83.10
47805;DHT22;33568;45.286;9.900;2022-11-20T14:11:52;14.20;83.00
47805;DHT22;33568;45.286;9.900;2022-11-20T14:14:20;14.20;83.20
47805;DHT22;33568;45.286;9.900;2022-11-20T14:16:48;14.20;83.40
47805;DHT22;33568;45.286;9.900;2022-11-20T14:22:07;14.20;83.20
47805;DHT22;33568;45.286;9.900;2022-11-20T14:24:34;14.10;83.20
47805;DHT22;33568;45.286;9.900;2022-11-20T14:27:00;14.10;83.70
47805;DHT22;33568;45.286;9.900;2022-11-20T14:29:35;14.10;83.90
47805;DHT22;33568;45.286;9.900;2022-11-20T14:32:04;14.10;83.80
47805;DHT22;33568;45.286;9.900;2022-11-20T14:34:38;14.00;84.00
47805;DHT22;33568;45.286;9.900;2022-11-20T14:37:10;14.00;84.10
47805;DHT22;33568;45.286;9.900;2022-11-20T14:39:42;14.00;84.10
47805;DHT22;33568;45.286;9.900;2022-11-20T14:42:28;14.00;84.00
47805;DHT22;33568;45.286;9.900;2022-11-20T14:44:58;14.00;83.60
47805;DHT22;33568;45.286;9.900;2022-11-20T14:47:28;13.90;84.00
47805;DHT22;33568;45.286;9.900;2022-11-20T14:49:57;13.90;84.30
47805;DHT22;33568;45.286;9.900;2022-11-20T14:52:26;13.90;84.70
47805;DHT22;33568;45.286;9.900;2022-11-20T14:54:54;13.80;84.80
47805;DHT22;33568;45.286;9.900;2022-11-20T14:57:34;13.80;84.90
47805;DHT22;33568;45.286;9.900;2022-11-20T15:02:44;13.70;84.70
47805;DHT22;33568;45.286;9.900;2022-11-20T15:05:10;13.70;85.40
47805;DHT22;33568;45.286;9.900;2022-11-20T15:07:40;13.60;85.70
47805;DHT22;33568;45.286;9.900;2022-11-20T15:10:26;13.60;86.00
47805;DHT22;33568;45.286;9.900;2022-11-20T15:13:00;13.50;86.50
47805;DHT22;33568;45.286;9.900;2022-11-20T15:18:19;13.40;87.20
47805;DHT22;33568;45.286;9.900;2022-11-20T15:20:48;13.40;87.50
47805;DHT22;33568;45.286;9.900;2022-11-20T15:23:16;13.30;87.90
47805;DHT22;33568;45.286;9.900;2022-11-20T15:25:45;13.30;88.30
47805;DHT22;33568;45.286;9.900;2022-11-20T15:28:23;13.20;88.60
47805;DHT22;33568;45.286;9.900;2022-11-20T15:30:53;13.20;88.80
47805;DHT22;33568;45.286;9.900;2022-11-20T15:33:19;13.10;89.00
47805;DHT22;33568;45.286;9.900;2022-11-20T15:35:46;13.00;89.80
47805;DHT22;33568;45.286;9.900;2022-11-20T15:38:12;13.00;89.40
47805;DHT22;33568;45.286;9.900;2022-11-20T15:40:39;12.90;89.50
47805;DHT22;33568;45.286;9.900;2022-11-20T15:43:05;12.90;89.80
47805;DHT22;33568;45.286;9.900;2022-11-20T15:48:02;12.70;90.10
47805;DHT22;33568;45.286;9.900;2022-11-20T15:50:36;12.60;90.30
47805;DHT22;33568;45.286;9.900;2022-11-20T15:53:03;12.50;90.50
47805;DHT22;33568;45.286;9.900;2022-11-20T15:55:30;12.40;90.70
47805;DHT22;33568;45.286;9.900;2022-11-20T15:57:56;12.30;91.20
47805;DHT22;33568;45.286;9.900;2022-11-20T16:00:22;12.20;90.80
47805;DHT22;33568;45.286;9.900;2022-11-20T16:02:49;12.10;91.40
47805;DHT22;33568;45.286;9.900;2022-11-20T16:05:15;12.10;91.00
47805;DHT22;33568;45.286;9.900;2022-11-20T16:07:43;12.00;91.20
47805;DHT22;33568;45.286;9.900;2022-11-20T16:10:13;11.90;91.40
47805;DHT22;33568;45.286;9.900;2022-11-20T16:12:39;11.80;91.50
47805;DHT22;33568;45.286;9.900;2022-11-20T16:15:24;11.80;91.70
47805;DHT22;33568;45.286;9.900;2022-11-20T16:18:21;11.70;91.80
47805;DHT22;33568;45.286;9.900;2022-11-20T16:20:52;11.60;91.90
47805;DHT22;33568;45.286;9.900;2022-11-20T16:23:20;11.50;92.00
47805;DHT22;33568;45.286;9.900;2022-11-20T16:25:47;11.50;92.10
47805;DHT22;33568;45.286;9.900;2022-11-20T16:28:14;11.40;92.30
47805;DHT22;33568;45.286;9.900;2022-11-20T16:30:40;11.40;92.40
47805;DHT22;33568;45.286;9.900;2022-11-20T16:33:25;11.30;92.50
47805;DHT22;33568;45.286;9.900;2022-11-20T16:35:51;11.30;92.80
47805;DHT22;33568;45.286;9.900;2022-11-20T16:38:17;11.20;92.80
47805;DHT22;33568;45.286;9.900;2022-11-20T16:40:44;11.10;93.00
47805;DHT22;33568;45.286;9.900;2022-11-20T16:43:12;11.10;93.10
47805;DHT22;33568;45.286;9.900;2022-11-20T16:45:41;11.10;93.20
47805;DHT22;33568;45.286;9.900;2022-11-20T16:48:12;11.10;93.30
47805;DHT22;33568;45.286;9.900;2022-11-20T16:50:48;11.00;93.40
47805;DHT22;33568;45.286;9.900;2022-11-20T16:53:16;11.00;93.50
47805;DHT22;33568;45.286;9.900;2022-11-20T16:55:43;10.90;93.60
47805;DHT22;33568;45.286;9.900;2022-11-20T16:58:09;10.90;93.60
47805;DHT22;33568;45.286;9.900;2022-11-20T17:00:40;10.90;93.70
47805;DHT22;33568;45.286;9.900;2022-11-20T17:03:07;10.90;93.80
47805;DHT22;33568;45.286;9.900;2022-11-20T17:05:34;10.90;93.80
47805;DHT22;33568;45.286;9.900;2022-11-20T17:08:01;10.90;93.90
47805;DHT22;33568;45.286;9.900;2022-11-20T17:10:27;10.80;94.00
47805;DHT22;33568;45.286;9.900;2022-11-20T17:12:54;10.80;94.10
47805;DHT22;33568;45.286;9.900;2022-11-20T17:15:20;10.80;94.20
47805;DHT22;33568;45.286;9.900;2022-11-20T17:17:47;10.80;94.30
47805;DHT22;33568;45.286;9.900;2022-11-20T17:20:13;10.70;94.80
47805;DHT22;33568;45.286;9.900;2022-11-20T17:22:39;10.70;94.30
47805;DHT22;33568;45.286;9.900;2022-11-20T17:25:06;10.70;94.30
47805;DHT22;33568;45.286;9.900;2022-11-20T17:27:33;10.70;94.30
47805;DHT22;33568;45.286;9.900;2022-11-20T17:29:59;10.70;94.40
47805;DHT22;33568;45.286;9.900;2022-11-20T17:32:26;10.60;94.40
47805;DHT22;33568;45.286;9.900;2022-11-20T17:34:53;10.60;94.50
47805;DHT22;33568;45.286;9.900;2022-11-20T17:37:19;10.60;94.40
47805;DHT22;33568;45.286;9.900;2022-11-20T17:39:45;10.50;94.30
47805;DHT22;33568;45.286;9.900;2022-11-20T17:42:14;10.40;94.40
47805;DHT22;33568;45.286;9.900;2022-11-20T17:44:52;10.40;94.50
47805;DHT22;33568;45.286;9.900;2022-11-20T17:47:19;10.30;94.70
47805;DHT22;33568;45.286;9.900;2022-11-20T17:49:45;10.30;94.70
47805;DHT22;33568;45.286;9.900;2022-11-20T17:52:11;10.20;94.80
47805;DHT22;33568;45.286;9.900;2022-11-20T17:54:38;10.20;94.80